Time;durP1;ratioP1;P1;durP2;ratioP2;P2;SDS_P1;SDS_P2;PMS_P1;PMS_P2;Temp;Humidity;BMP_temperature;BMP_pressure;BME280_temperature;BME280_humidity;BME280_pressure;Samples;Min_cycle;Max_cycle;Signal;HPM_P1;HPM_P2
2021/11/24 00:01:45;;;;;;;;;;;;;;;;;;5053875;28;19909;-75
2021/11/24 00:04:10;;;;;;;;;;;;;;;;;;5055272;28;19916;-75
2021/11/24 00:06:36;;;;;;;;;;;;;;;;;;5054861;28;20411;-75
2021/11/24 00:09:01;;;;;;;;;;;;;;;;;;5055125;28;19967;-75
2021/11/24 00:11:27;;;;;;;;;;;;;;;;;;5055318;28;19968;-75
2021/11/24 00:13:52;;;;;;;;;;;;;;;;;;5054958;28;20355;-75
2021/11/24 00:16:17;;;;;;;;;;;;;;;;;;5055344;28;19959;-75
2021/11/24 00:18:43;;;;;;;;;;;;;;;;;;5055250;28;19970;-75
2021/11/24 00:21:08;;;;;;;;;;;;;;;;;;5054774;28;20258;-75
2021/11/24 00:23:34;;;;;;;;;;;;;;;;;;5054718;28;19916;-75
2021/11/24 00:25:59;;;;;;;;;;;;;;;;;;5055028;28;19966;-75
2021/11/24 00:28:24;;;;;;;;;;;;;;;;;;5054698;28;19999;-76
2021/11/24 00:30:50;;;;;;;;;;;;;;;;;;5054859;28;19912;-75
2021/11/24 00:33:15;;;;;;;;;;;;;;;;;;5053856;28;20367;-76
2021/11/24 00:35:41;;;;;;;;;;;;;;;;;;5054232;28;19920;-75
2021/11/24 00:38:06;;;;;;;;;;;;;;;;;;5053887;28;19912;-75
2021/11/24 00:40:31;;;;;;;;;;;;;;;;;;5054854;28;20031;-75
2021/11/24 00:42:56;;;;;;;;;;;;;;;;;;5054606;28;19917;-75
2021/11/24 00:45:22;;;;;;;;;;;;;;;;;;5054456;28;20003;-75
2021/11/24 00:47:48;;;;;;;;;;;;;;;;;;5054622;28;19927;-75
2021/11/24 00:50:14;;;;;;;;;;;;;;;;;;5054658;28;19917;-75
2021/11/24 00:52:39;;;;;;;;;;;;;;;;;;5054449;28;19916;-75
2021/11/24 00:55:04;;;;;;;;;;;;;;;;;;5054213;28;19912;-75
2021/11/24 00:57:30;;;;;;;;;;;;;;;;;;5054604;28;19915;-75
2021/11/24 00:59:55;;;;;;;;;;;;;;;;;;5054578;28;20358;-75
2021/11/24 01:02:21;;;;;;;;;;;;;;;;;;5053744;28;19917;-75
2021/11/24 01:04:46;;;;;;;;;;;;;;;;;;5053184;28;20346;-75
2021/11/24 01:07:11;;;;;;;;;;;;;;;;;;5053417;28;19913;-75
2021/11/24 01:09:36;;;;;;;;;;;;;;;;;;5054212;28;19913;-75
2021/11/24 01:12:02;;;;;;;;;;;;;;;;;;5054105;28;19919;-75
2021/11/24 01:14:27;;;;;;;;;;;;;;;;;;5054152;28;19916;-75
2021/11/24 01:16:53;;;;;;;;;;;;;;;;;;5053550;28;19913;-75
2021/11/24 01:19:18;;;;;;;;;;;;;;;;;;5053930;28;20480;-75
2021/11/24 01:21:44;;;;;;;;;;;;;;;;;;5054215;28;19958;-75
2021/11/24 01:24:10;;;;;;;;;;;;;;;;;;5053561;28;19916;-75
2021/11/24 01:26:35;;;;;;;;;;;;;;;;;;5053678;28;20270;-75
2021/11/24 01:29:04;;;;;;;;;;;;;;;;;;5053649;28;19919;-75
2021/11/24 01:31:30;;;;;;;;;;;;;;;;;;5053905;28;19913;-75
2021/11/24 01:33:55;;;;;;;;;;;;;;;;;;5053410;28;20367;-75
2021/11/24 01:36:20;;;;;;;;;;;;;;;;;;5053587;28;19999;-75
2021/11/24 01:38:46;;;;;;;;;;;;;;;;;;5053259;28;19948;-75
2021/11/24 01:41:12;;;;;;;;;;;;;;;;;;5053888;28;20023;-75
2021/11/24 01:43:37;;;;;;;;;;;;;;;;;;5053744;28;20014;-75
2021/11/24 01:46:03;;;;;;;;;;;;;;;;;;5053341;28;19979;-75
2021/11/24 01:48:28;;;;;;;;;;;;;;;;;;5053806;28;20430;-75
2021/11/24 01:50:54;;;;;;;;;;;;;;;;;;5053057;28;19965;-75
2021/11/24 01:53:19;;;;;;;;;;;;;;;;;;5053179;28;19912;-75
2021/11/24 01:55:45;;;;;;;;;;;;;;;;;;5053476;28;19920;-75
2021/11/24 01:58:11;;;;;;;;;;;;;;;;;;5052922;28;19913;-75
2021/11/24 02:00:36;;;;;;;;;;;;;;;;;;5053588;28;19920;-75
2021/11/24 02:03:03;;;;;;;;;;;;;;;;;;5052542;28;19921;-75
2021/11/24 02:05:29;;;;;;;;;;;;;;;;;;5053532;28;19995;-75
2021/11/24 02:07:54;;;;;;;;;;;;;;;;;;5053394;28;20396;-75
2021/11/24 02:10:23;;;;;;;;;;;;;;;;;;5053530;28;20008;-75
2021/11/24 02:12:49;;;;;;;;;;;;;;;;;;5053129;28;20003;-75
2021/11/24 02:15:14;;;;;;;;;;;;;;;;;;5053300;28;20366;-75
2021/11/24 02:17:39;;;;;;;;;;;;;;;;;;5053527;28;19951;-75
2021/11/24 02:20:05;;;;;;;;;;;;;;;;;;5053299;28;20294;-75
2021/11/24 02:22:31;;;;;;;;;;;;;;;;;;5053361;28;19942;-75
2021/11/24 02:24:56;;;;;;;;;;;;;;;;;;5051469;28;19925;-75
2021/11/24 02:27:22;;;;;;;;;;;;;;;;;;5053237;28;19919;-75
2021/11/24 02:29:47;;;;;;;;;;;;;;;;;;5052963;28;20497;-75
2021/11/24 02:32:14;;;;;;;;;;;;;;;;;;5053242;28;19935;-75
2021/11/24 02:34:41;;;;;;;;;;;;;;;;;;5053142;28;19927;-75
2021/11/24 02:37:06;;;;;;;;;;;;;;;;;;5053008;28;20389;-75
2021/11/24 02:39:31;;;;;;;;;;;;;;;;;;5052489;28;19913;-75
2021/11/24 02:41:57;;;;;;;;;;;;;;;;;;5053240;28;19917;-75
2021/11/24 02:44:30;;;;;;;;;;;;;;;;;;5052757;28;20347;-75
2021/11/24 02:47:05;;;;;;;;;;;;;;;;;;5055892;28;20020;-75
2021/11/24 02:49:34;;;;;;;;;;;;;;;;;;5056968;28;19913;-75
2021/11/24 02:51:59;;;;;;;;;;;;;;;;;;5056897;28;20327;-75
2021/11/24 02:54:25;;;;;;;;;;;;;;;;;;5056660;28;20001;-75
2021/11/24 02:56:50;;;;;;;;;;;;;;;;;;5056632;28;19916;-75
2021/11/24 02:59:15;;;;;;;;;;;;;;;;;;5056768;28;20031;-75
2021/11/24 03:01:42;;;;;;;;;;;;;;;;;;5055268;28;19912;-75
2021/11/24 03:04:07;;;;;;;;;;;;;;;;;;5056564;28;20351;-75
2021/11/24 03:06:33;;;;;;;;;;;;;;;;;;5052889;28;19919;-75
2021/11/24 03:08:58;;;;;;;;;;;;;;;;;;5056401;28;19999;-75
2021/11/24 03:11:24;;;;;;;;;;;;;;;;;;5056420;28;19956;-75
2021/11/24 03:13:49;;;;;;;;;;;;;;;;;;5056232;28;19966;-75
2021/11/24 03:16:14;;;;;;;;;;;;;;;;;;5056622;28;19917;-77
2021/11/24 03:18:40;;;;;;;;;;;;;;;;;;5056212;28;19912;-75
2021/11/24 03:21:05;;;;;;;;;;;;;;;;;;5056487;28;19919;-75
2021/11/24 03:23:30;;;;;;;;;;;;;;;;;;5056145;28;19917;-74
2021/11/24 03:25:56;;;;;;;;;;;;;;;;;;5055970;28;20297;-75
2021/11/24 03:28:21;;;;;;;;;;;;;;;;;;5056149;28;19912;-74
2021/11/24 03:30:46;;;;;;;;;;;;;;;;;;5056006;28;19919;-75
2021/11/24 03:33:12;;;;;;;;;;;;;;;;;;5055824;28;20343;-74
2021/11/24 03:35:38;;;;;;;;;;;;;;;;;;5055934;28;19942;-74
2021/11/24 03:38:03;;;;;;;;;;;;;;;;;;5054703;28;19931;-75
2021/11/24 03:40:33;;;;;;;;;;;;;;;;;;5055971;28;20281;-74
2021/11/24 03:42:58;;;;;;;;;;;;;;;;;;5055700;28;20035;-75
2021/11/24 03:45:25;;;;;;;;;;;;;;;;;;5055703;28;20006;-75
2021/11/24 03:47:51;;;;;;;;;;;;;;;;;;5054382;28;19912;-75
2021/11/24 03:50:16;;;;;;;;;;;;;;;;;;5055599;28;20263;-75
2021/11/24 03:52:42;;;;;;;;;;;;;;;;;;5055628;28;19913;-74
2021/11/24 03:55:09;;;;;;;;;;;;;;;;;;5055362;28;20605;-75
2021/11/24 03:57:35;;;;;;;;;;;;;;;;;;5054478;28;19912;-75
2021/11/24 04:00:00;;;;;;;;;;;;;;;;;;5053968;28;19912;-72
2021/11/24 04:02:25;;;;;;;;;;;;;;;;;;5055349;28;19927;-73
2021/11/24 04:04:51;;;;;;;;;;;;;;;;;;5055459;28;20378;-73
2021/11/24 04:07:17;;;;;;;;;;;;;;;;;;5055164;28;19939;-72
2021/11/24 04:09:42;;;;;;;;;;;;;;;;;;5055436;28;19952;-72
2021/11/24 04:12:07;;;;;;;;;;;;;;;;;;5054930;28;20259;-73
2021/11/24 04:14:33;;;;;;;;;;;;;;;;;;5055295;28;19921;-72
2021/11/24 04:16:58;;;;;;;;;;;;;;;;;;5055246;28;20307;-73
2021/11/24 04:19:24;;;;;;;;;;;;;;;;;;5055145;28;19919;-73
2021/11/24 04:21:49;;;;;;;;;;;;;;;;;;5055094;28;20050;-73
2021/11/24 04:24:14;;;;;;;;;;;;;;;;;;5055084;28;19961;-73
2021/11/24 04:26:40;;;;;;;;;;;;;;;;;;5055275;28;20007;-72
2021/11/24 04:29:05;;;;;;;;;;;;;;;;;;5054875;28;19912;-72
2021/11/24 04:31:30;;;;;;;;;;;;;;;;;;5054769;28;19920;-72
2021/11/24 04:33:56;;;;;;;;;;;;;;;;;;5054908;28;20270;-73
2021/11/24 04:36:21;;;;;;;;;;;;;;;;;;5053572;28;19979;-73
2021/11/24 04:38:47;;;;;;;;;;;;;;;;;;5053878;28;19966;-72
2021/11/24 04:41:12;;;;;;;;;;;;;;;;;;5054415;28;19919;-72
2021/11/24 04:43:46;;;;;;;;;;;;;;;;;;5054790;28;19916;-72
2021/11/24 04:46:16;;;;;;;;;;;;;;;;;;5054555;28;19917;-72
2021/11/24 04:48:41;;;;;;;;;;;;;;;;;;5054724;28;20271;-72
2021/11/24 04:51:06;;;;;;;;;;;;;;;;;;5054793;28;19913;-72
2021/11/24 04:53:32;;;;;;;;;;;;;;;;;;5054388;28;20015;-72
2021/11/24 04:55:57;;;;;;;;;;;;;;;;;;5054519;28;20027;-72
2021/11/24 04:58:25;;;;;;;;;;;;;;;;;;5054511;28;19912;-72
2021/11/24 05:00:50;;;;;;;;;;;;;;;;;;5054380;28;19920;-72
2021/11/24 05:03:16;;;;;;;;;;;;;;;;;;5054508;28;19916;-72
2021/11/24 05:05:41;;;;;;;;;;;;;;;;;;5054157;28;19959;-72
2021/11/24 05:08:07;;;;;;;;;;;;;;;;;;5053091;28;20058;-72
2021/11/24 05:10:32;;;;;;;;;;;;;;;;;;5053593;28;19912;-72
2021/11/24 05:12:58;;;;;;;;;;;;;;;;;;5054137;28;19916;-72
2021/11/24 05:15:35;;;;;;;;;;;;;;;;;;5053941;28;19936;-72
2021/11/24 05:18:05;;;;;;;;;;;;;;;;;;5053379;28;19920;-72
2021/11/24 05:20:32;;;;;;;;;;;;;;;;;;5054283;28;19913;-72
2021/11/24 05:23:00;;;;;;;;;;;;;;;;;;5054223;28;19921;-72
2021/11/24 05:25:25;;;;;;;;;;;;;;;;;;5054080;28;19952;-72
2021/11/24 05:27:51;;;;;;;;;;;;;;;;;;5053747;28;19959;-72
2021/11/24 05:30:16;;;;;;;;;;;;;;;;;;5053696;28;20301;-72
2021/11/24 05:32:42;;;;;;;;;;;;;;;;;;5053818;28;19913;-72
2021/11/24 05:35:07;;;;;;;;;;;;;;;;;;5052704;28;20163;-72
2021/11/24 05:37:33;;;;;;;;;;;;;;;;;;5053968;28;19999;-72
2021/11/24 05:39:58;;;;;;;;;;;;;;;;;;5052863;28;19921;-72
2021/11/24 05:42:26;;;;;;;;;;;;;;;;;;5053665;28;19920;-72
2021/11/24 05:45:01;;;;;;;;;;;;;;;;;;5052373;28;19999;-72
2021/11/24 05:50:10;;;;;;;;;;;;;;;;;;5051849;28;19967;-72
2021/11/24 05:52:36;;;;;;;;;;;;;;;;;;5051050;28;19908;-72
2021/11/24 05:55:01;;;;;;;;;;;;;;;;;;5053328;28;19913;-72
2021/11/24 05:57:27;;;;;;;;;;;;;;;;;;5053633;28;19912;-72
2021/11/24 05:59:52;;;;;;;;;;;;;;;;;;5053792;28;19938;-72
2021/11/24 06:02:17;;;;;;;;;;;;;;;;;;5053426;28;19917;-72
2021/11/24 06:04:43;;;;;;;;;;;;;;;;;;5053645;28;19935;-72
2021/11/24 06:07:08;;;;;;;;;;;;;;;;;;5053314;28;20098;-72
2021/11/24 06:09:33;;;;;;;;;;;;;;;;;;5053424;28;19963;-72
2021/11/24 06:11:59;;;;;;;;;;;;;;;;;;5070605;28;19912;-72
2021/11/24 06:14:24;;;;;;;;;;;;;;;;;;5054690;28;19958;-72
2021/11/24 06:16:49;;;;;;;;;;;;;;;;;;5053184;28;19913;-72
2021/11/24 06:19:14;;;;;;;;;;;;;;;;;;5053430;28;19920;-72
2021/11/24 06:21:40;;;;;;;;;;;;;;;;;;5055900;28;20003;-72
2021/11/24 06:24:05;;;;;;;;;;;;;;;;;;5057365;28;19917;-73
2021/11/24 06:26:31;;;;;;;;;;;;;;;;;;5057872;28;19912;-72
2021/11/24 06:28:56;;;;;;;;;;;;;;;;;;5057440;28;19921;-72
2021/11/24 06:31:25;;;;;;;;;;;;;;;;;;5057156;28;20355;-73
2021/11/24 06:33:51;;;;;;;;;;;;;;;;;;5056112;28;20008;-73
2021/11/24 06:36:16;;;;;;;;;;;;;;;;;;5057231;28;19974;-73
2021/11/24 06:38:41;;;;;;;;;;;;;;;;;;5057232;28;19920;-73
2021/11/24 06:41:07;;;;;;;;;;;;;;;;;;5057139;28;19912;-73
2021/11/24 06:43:32;;;;;;;;;;;;;;;;;;5056802;28;20017;-72
2021/11/24 06:45:58;;;;;;;;;;;;;;;;;;5056499;28;19921;-73
2021/11/24 06:48:23;;;;;;;;;;;;;;;;;;5056953;28;20362;-73
2021/11/24 06:50:48;;;;;;;;;;;;;;;;;;5056962;28;19912;-72
2021/11/24 06:53:14;;;;;;;;;;;;;;;;;;5056783;28;19913;-72
2021/11/24 06:55:39;;;;;;;;;;;;;;;;;;5056804;28;19913;-73
2021/11/24 06:58:04;;;;;;;;;;;;;;;;;;5055511;28;19912;-72
2021/11/24 07:00:29;;;;;;;;;;;;;;;;;;5056654;28;20244;-72
2021/11/24 07:02:55;;;;;;;;;;;;;;;;;;5056299;28;19920;-73
2021/11/24 07:05:20;;;;;;;;;;;;;;;;;;5056247;28;20286;-72
2021/11/24 07:07:45;;;;;;;;;;;;;;;;;;5056498;28;19966;-73
2021/11/24 07:10:11;;;;;;;;;;;;;;;;;;5056562;28;19913;-73
2021/11/24 07:12:36;;;;;;;;;;;;;;;;;;5055253;28;19928;-73
2021/11/24 07:15:01;;;;;;;;;;;;;;;;;;5056238;28;20011;-72
2021/11/24 07:17:27;;;;;;;;;;;;;;;;;;5056335;28;20001;-72
2021/11/24 07:19:52;;;;;;;;;;;;;;;;;;5056204;28;19920;-72
2021/11/24 07:22:18;;;;;;;;;;;;;;;;;;5056265;28;19916;-72
2021/11/24 07:24:43;;;;;;;;;;;;;;;;;;5056288;28;20019;-72
2021/11/24 07:27:08;;;;;;;;;;;;;;;;;;5056338;28;19913;-72
2021/11/24 07:29:34;;;;;;;;;;;;;;;;;;5055994;28;19975;-72
2021/11/24 07:31:59;;;;;;;;;;;;;;;;;;5054044;28;19912;-72
2021/11/24 07:34:24;;;;;;;;;;;;;;;;;;5055751;28;20286;-72
2021/11/24 07:36:50;;;;;;;;;;;;;;;;;;5056071;28;19913;-72
2021/11/24 07:39:15;;;;;;;;;;;;;;;;;;5055026;28;19913;-72
2021/11/24 07:41:41;;;;;;;;;;;;;;;;;;5056191;28;19916;-72
2021/11/24 07:44:06;;;;;;;;;;;;;;;;;;5055611;28;19917;-73
2021/11/24 07:46:31;;;;;;;;;;;;;;;;;;5055613;28;19959;-72
2021/11/24 07:48:58;;;;;;;;;;;;;;;;;;5054746;28;20369;-72
2021/11/24 07:51:23;;;;;;;;;;;;;;;;;;5055621;28;19912;-73
2021/11/24 07:53:49;;;;;;;;;;;;;;;;;;5055718;28;19919;-72
2021/11/24 07:56:14;;;;;;;;;;;;;;;;;;5055310;28;19937;-72
2021/11/24 07:58:41;;;;;;;;;;;;;;;;;;5054573;28;19938;-73
2021/11/24 08:01:07;;;;;;;;;;;;;;;;;;5055566;28;19982;-73
2021/11/24 08:03:33;;;;;;;;;;;;;;;;;;5054922;28;19919;-75
2021/11/24 08:05:58;;;;;;;;;;;;;;;;;;5055542;28;20019;-76
2021/11/24 08:08:23;;;;;;;;;;;;;;;;;;5053994;28;19932;-75
2021/11/24 08:10:48;;;;;;;;;;;;;;;;;;5055408;28;19913;-75
2021/11/24 08:13:14;;;;;;;;;;;;;;;;;;5055483;28;19966;-75
2021/11/24 08:15:39;;;;;;;;;;;;;;;;;;5054120;28;19919;-75
2021/11/24 08:18:05;;;;;;;;;;;;;;;;;;5055375;28;19995;-75
2021/11/24 08:20:30;;;;;;;;;;;;;;;;;;5055332;28;19916;-75
2021/11/24 08:22:55;;;;;;;;;;;;;;;;;;5055121;28;19913;-73
2021/11/24 08:25:20;;;;;;;;;;;;;;;;;;5055236;28;19924;-73
2021/11/24 08:27:46;;;;;;;;;;;;;;;;;;5055112;28;19919;-75
2021/11/24 08:30:12;;;;;;;;;;;;;;;;;;5054957;28;19909;-75
2021/11/24 08:32:37;;;;;;;;;;;;;;;;;;5054809;28;19913;-75
2021/11/24 08:35:04;;;;;;;;;;;;;;;;;;5051758;28;19920;-75
2021/11/24 08:37:31;;;;;;;;;;;;;;;;;;5051875;28;19912;-73
2021/11/24 08:39:56;;;;;;;;;;;;;;;;;;5054836;28;19913;-72
2021/11/24 08:42:25;;;;;;;;;;;;;;;;;;5054192;28;19912;-73
2021/11/24 08:44:50;;;;;;;;;;;;;;;;;;5051989;28;19918;-73
2021/11/24 08:47:16;;;;;;;;;;;;;;;;;;5052395;28;19970;-73
2021/11/24 08:49:41;;;;;;;;;;;;;;;;;;5050996;28;19912;-73
2021/11/24 08:52:06;;;;;;;;;;;;;;;;;;5052327;28;19924;-73
2021/11/24 08:54:33;;;;;;;;;;;;;;;;;;5052038;28;20264;-73
2021/11/24 08:56:59;;;;;;;;;;;;;;;;;;5052236;28;20282;-73
2021/11/24 08:59:24;;;;;;;;;;;;;;;;;;5053109;28;20236;-73
2021/11/24 09:01:49;;;;;;;;;;;;;;;;;;5054425;28;20413;-73
2021/11/24 09:04:15;;;;;;;;;;;;;;;;;;5053411;28;19916;-73
2021/11/24 09:06:40;;;;;;;;;;;;;;;;;;5054463;28;19912;-73
2021/11/24 09:09:06;;;;;;;;;;;;;;;;;;5052701;28;20259;-73
2021/11/24 09:11:31;;;;;;;;;;;;;;;;;;5054204;28;20341;-72
2021/11/24 09:13:57;;;;;;;;;;;;;;;;;;5052443;28;20389;-73
2021/11/24 09:16:22;;;;;;;;;;;;;;;;;;5054133;28;19912;-72
2021/11/24 09:18:47;;;;;;;;;;;;;;;;;;5053875;28;19916;-72
2021/11/24 09:21:13;;;;;;;;;;;;;;;;;;5054095;28;19919;-74
2021/11/24 09:23:39;;;;;;;;;;;;;;;;;;5054203;28;19924;-74
2021/11/24 09:26:25;;;;;;;;;;;;;;;;;;5053135;28;19909;-76
2021/11/24 09:28:50;;;;;;;;;;;;;;;;;;5052202;28;19913;-77
2021/11/24 09:31:17;;;;;;;;;;;;;;;;;;5054161;28;19920;-76
2021/11/24 09:33:42;;;;;;;;;;;;;;;;;;5053781;28;19908;-75
2021/11/24 09:36:08;;;;;;;;;;;;;;;;;;5053828;28;19916;-76
2021/11/24 09:38:33;;;;;;;;;;;;;;;;;;5051939;28;19995;-76
2021/11/24 09:41:03;;;;;;;;;;;;;;;;;;5052938;28;20374;-77
2021/11/24 09:43:30;;;;;;;;;;;;;;;;;;5052683;28;20015;-77
2021/11/24 09:45:55;;;;;;;;;;;;;;;;;;5051697;28;20410;-77
2021/11/24 09:48:21;;;;;;;;;;;;;;;;;;5052609;28;20012;-77
2021/11/24 09:50:48;;;;;;;;;;;;;;;;;;5035348;28;19913;-75
2021/11/24 09:53:14;;;;;;;;;;;;;;;;;;5033461;28;19913;-73
2021/11/24 09:55:40;;;;;;;;;;;;;;;;;;5032580;28;20011;-75
2021/11/24 09:58:06;;;;;;;;;;;;;;;;;;5043454;28;20019;-76
2021/11/24 10:00:32;;;;;;;;;;;;;;;;;;5053951;28;19912;-77
2021/11/24 10:02:58;;;;;;;;;;;;;;;;;;5052750;28;19967;-77
2021/11/24 10:05:27;;;;;;;;;;;;;;;;;;5054909;28;19982;-77
2021/11/24 10:07:53;;;;;;;;;;;;;;;;;;5039338;28;19997;-77
2021/11/24 10:10:19;;;;;;;;;;;;;;;;;;5053390;28;19952;-77
2021/11/24 10:12:44;;;;;;;;;;;;;;;;;;5024297;28;19921;-76
2021/11/24 10:15:11;;;;;;;;;;;;;;;;;;5040684;28;19931;-75
2021/11/24 10:17:37;;;;;;;;;;;;;;;;;;5042450;28;20282;-76
2021/11/24 10:20:07;;;;;;;;;;;;;;;;;;5043682;28;19919;-76
2021/11/24 10:22:33;;;;;;;;;;;;;;;;;;5044325;28;20007;-77
2021/11/24 10:25:07;;;;;;;;;;;;;;;;;;5041862;28;19941;-77
2021/11/24 10:27:34;;;;;;;;;;;;;;;;;;5043290;28;19920;-75
2021/11/24 10:29:59;;;;;;;;;;;;;;;;;;5041665;28;19959;-76
2021/11/24 10:32:28;;;;;;;;;;;;;;;;;;5044025;28;20374;-76
2021/11/24 10:34:55;;;;;;;;;;;;;;;;;;5042949;28;20397;-76
2021/11/24 10:37:22;;;;;;;;;;;;;;;;;;5044909;28;19916;-76
2021/11/24 10:39:56;;;;;;;;;;;;;;;;;;5051845;28;19917;-77
2021/11/24 10:42:34;;;;;;;;;;;;;;;;;;5052720;28;20353;-75
2021/11/24 10:45:07;;;;;;;;;;;;;;;;;;5052366;28;19982;-77
2021/11/24 10:47:32;;;;;;;;;;;;;;;;;;5052901;28;19917;-76
2021/11/24 10:50:00;;;;;;;;;;;;;;;;;;5052097;28;19924;-76
2021/11/24 10:52:25;;;;;;;;;;;;;;;;;;5053233;28;20252;-76
2021/11/24 10:54:56;;;;;;;;;;;;;;;;;;5052237;28;19944;-74
2021/11/24 10:57:21;;;;;;;;;;;;;;;;;;5052746;28;19966;-73
2021/11/24 10:59:46;;;;;;;;;;;;;;;;;;5053043;28;20329;-74
2021/11/24 11:02:20;;;;;;;;;;;;;;;;;;5051764;28;19912;-74
2021/11/24 11:05:04;;;;;;;;;;;;;;;;;;5052139;28;20306;-74
2021/11/24 11:07:31;;;;;;;;;;;;;;;;;;5053572;28;19952;-74
2021/11/24 11:10:14;;;;;;;;;;;;;;;;;;5056588;28;20235;-74
2021/11/24 11:12:41;;;;;;;;;;;;;;;;;;5056305;28;19999;-74
2021/11/24 11:15:30;;;;;;;;;;;;;;;;;;5055090;28;19999;-74
2021/11/24 11:18:04;;;;;;;;;;;;;;;;;;5050803;28;19960;-72
2021/11/24 11:20:34;;;;;;;;;;;;;;;;;;5056406;28;19919;-74
2021/11/24 11:23:08;;;;;;;;;;;;;;;;;;5056129;28;19916;-74
2021/11/24 11:25:35;;;;;;;;;;;;;;;;;;5054799;28;19916;-73
2021/11/24 11:28:00;;;;;;;;;;;;;;;;;;5056015;28;19909;-73
2021/11/24 11:30:26;;;;;;;;;;;;;;;;;;5056238;28;19916;-73
2021/11/24 11:32:52;;;;;;;;;;;;;;;;;;5056340;28;20381;-73
2021/11/24 11:35:19;;;;;;;;;;;;;;;;;;5056108;28;20012;-74
2021/11/24 11:37:45;;;;;;;;;;;;;;;;;;5055188;28;19939;-73
2021/11/24 11:40:15;;;;;;;;;;;;;;;;;;5055267;28;19912;-73
2021/11/24 11:42:41;;;;;;;;;;;;;;;;;;5055583;28;19917;-74
2021/11/24 11:45:08;;;;;;;;;;;;;;;;;;5055768;28;19920;-73
2021/11/24 11:47:42;;;;;;;;;;;;;;;;;;5055701;28;19913;-74
2021/11/24 11:50:08;;;;;;;;;;;;;;;;;;5055635;28;20355;-74
2021/11/24 11:52:33;;;;;;;;;;;;;;;;;;5055576;28;19956;-73
2021/11/24 11:55:18;;;;;;;;;;;;;;;;;;5055780;28;20358;-74
2021/11/24 11:57:44;;;;;;;;;;;;;;;;;;5055254;28;19916;-74
2021/11/24 12:00:09;;;;;;;;;;;;;;;;;;5054780;28;19920;-74
2021/11/24 12:02:46;;;;;;;;;;;;;;;;;;5055594;28;19967;-74
2021/11/24 12:05:11;;;;;;;;;;;;;;;;;;5055415;28;19919;-74
2021/11/24 12:07:56;;;;;;;;;;;;;;;;;;5055661;28;19912;-76
2021/11/24 12:10:41;;;;;;;;;;;;;;;;;;5055098;28;19913;-73
2021/11/24 12:13:07;;;;;;;;;;;;;;;;;;5056602;28;19984;-76
2021/11/24 12:15:33;;;;;;;;;;;;;;;;;;5033201;28;19917;-76
2021/11/24 12:18:09;;;;;;;;;;;;;;;;;;5035750;28;19971;-76
2021/11/24 12:20:41;;;;;;;;;;;;;;;;;;5047406;28;20381;-76
2021/11/24 12:23:11;;;;;;;;;;;;;;;;;;5046186;28;19916;-76
2021/11/24 12:25:37;;;;;;;;;;;;;;;;;;5044925;28;19920;-76
2021/11/24 12:28:07;;;;;;;;;;;;;;;;;;5045925;28;19912;-73
2021/11/24 12:30:36;;;;;;;;;;;;;;;;;;5044641;28;19990;-73
2021/11/24 12:33:07;;;;;;;;;;;;;;;;;;5043498;28;20382;-73
2021/11/24 12:35:34;;;;;;;;;;;;;;;;;;5046032;28;19934;-73
2021/11/24 12:37:59;;;;;;;;;;;;;;;;;;5054643;28;19912;-73
2021/11/24 12:40:29;;;;;;;;;;;;;;;;;;5054792;28;19917;-73
2021/11/24 12:42:59;;;;;;;;;;;;;;;;;;5054594;28;19970;-73
2021/11/24 12:45:24;;;;;;;;;;;;;;;;;;5054729;28;19955;-73
2021/11/24 12:47:57;;;;;;;;;;;;;;;;;;5054816;28;19997;-73
2021/11/24 12:50:23;;;;;;;;;;;;;;;;;;5034822;28;19913;-73
2021/11/24 12:53:05;;;;;;;;;;;;;;;;;;5034640;28;20375;-73
2021/11/24 12:55:31;;;;;;;;;;;;;;;;;;5034502;28;20000;-74
2021/11/24 12:57:56;;;;;;;;;;;;;;;;;;5034368;28;20006;-73
2021/11/24 13:00:26;;;;;;;;;;;;;;;;;;5034594;28;20455;-73
2021/11/24 13:02:51;;;;;;;;;;;;;;;;;;5034560;28;19924;-73
2021/11/24 13:05:17;;;;;;;;;;;;;;;;;;5034211;28;19913;-73
2021/11/24 13:07:49;;;;;;;;;;;;;;;;;;5034524;28;19995;-74
2021/11/24 13:10:16;;;;;;;;;;;;;;;;;;5034441;28;19944;-73
2021/11/24 13:12:41;;;;;;;;;;;;;;;;;;5053711;28;19936;-73
2021/11/24 13:15:08;;;;;;;;;;;;;;;;;;5054114;28;19913;-73
2021/11/24 13:17:36;;;;;;;;;;;;;;;;;;5054079;28;19913;-74
2021/11/24 13:20:05;;;;;;;;;;;;;;;;;;5054061;28;19967;-74
2021/11/24 13:22:36;;;;;;;;;;;;;;;;;;5054212;28;19920;-74
2021/11/24 13:25:08;;;;;;;;;;;;;;;;;;5053183;28;19974;-74
2021/11/24 13:27:37;;;;;;;;;;;;;;;;;;5053899;28;19913;-73
2021/11/24 13:30:03;;;;;;;;;;;;;;;;;;5053420;28;19919;-74
2021/11/24 13:32:28;;;;;;;;;;;;;;;;;;5054052;28;19921;-74
2021/11/24 13:34:56;;;;;;;;;;;;;;;;;;5053931;28;20359;-74
2021/11/24 13:37:26;;;;;;;;;;;;;;;;;;5052246;28;20384;-74
2021/11/24 13:39:52;;;;;;;;;;;;;;;;;;5052688;28;19971;-74
2021/11/24 13:42:17;;;;;;;;;;;;;;;;;;5053775;28;19912;-74
2021/11/24 13:44:50;;;;;;;;;;;;;;;;;;5052259;28;19983;-74
2021/11/24 13:47:19;;;;;;;;;;;;;;;;;;5053388;28;19912;-74
2021/11/24 13:49:45;;;;;;;;;;;;;;;;;;5052570;28;19916;-74
2021/11/24 13:52:14;;;;;;;;;;;;;;;;;;5053986;28;20449;-74
2021/11/24 13:54:42;;;;;;;;;;;;;;;;;;5052489;28;19940;-74
2021/11/24 13:57:10;;;;;;;;;;;;;;;;;;5053115;28;19919;-74
2021/11/24 13:59:36;;;;;;;;;;;;;;;;;;5053567;28;20366;-74
2021/11/24 14:02:06;;;;;;;;;;;;;;;;;;5053437;28;19939;-74
2021/11/24 14:04:31;;;;;;;;;;;;;;;;;;5053435;28;19917;-74
2021/11/24 14:07:23;;;;;;;;;;;;;;;;;;5052712;28;19920;-74
2021/11/24 14:09:58;;;;;;;;;;;;;;;;;;5051290;28;19919;-74
2021/11/24 14:12:26;;;;;;;;;;;;;;;;;;5053713;28;19912;-74
2021/11/24 14:14:52;;;;;;;;;;;;;;;;;;5053416;28;20321;-74
2021/11/24 14:17:23;;;;;;;;;;;;;;;;;;5052199;28;19920;-74
2021/11/24 14:19:48;;;;;;;;;;;;;;;;;;5052888;28;20328;-74
2021/11/24 14:22:14;;;;;;;;;;;;;;;;;;5053204;28;19916;-73
2021/11/24 14:24:40;;;;;;;;;;;;;;;;;;5053353;28;19984;-74
2021/11/24 14:27:06;;;;;;;;;;;;;;;;;;5052418;28;19948;-74
2021/11/24 14:29:33;;;;;;;;;;;;;;;;;;5053378;28;20311;-74
2021/11/24 14:32:00;;;;;;;;;;;;;;;;;;5052047;28;19966;-74
2021/11/24 14:34:25;;;;;;;;;;;;;;;;;;5051750;28;19920;-74
2021/11/24 14:36:52;;;;;;;;;;;;;;;;;;5053262;28;19916;-74
2021/11/24 14:39:17;;;;;;;;;;;;;;;;;;5052519;28;19913;-73
2021/11/24 14:41:45;;;;;;;;;;;;;;;;;;5036594;28;20418;-74
2021/11/24 14:44:12;;;;;;;;;;;;;;;;;;5057167;28;19969;-75
2021/11/24 14:46:37;;;;;;;;;;;;;;;;;;5056940;28;19916;-74
2021/11/24 14:49:02;;;;;;;;;;;;;;;;;;5056931;28;19950;-74
2021/11/24 14:51:27;;;;;;;;;;;;;;;;;;5056992;28;19917;-74
2021/11/24 14:53:53;;;;;;;;;;;;;;;;;;5056879;28;19912;-74
2021/11/24 14:56:18;;;;;;;;;;;;;;;;;;5057068;28;20015;-74
2021/11/24 14:58:44;;;;;;;;;;;;;;;;;;5056960;28;19919;-74
2021/11/24 15:01:10;;;;;;;;;;;;;;;;;;5056887;28;20007;-74
2021/11/24 15:03:36;;;;;;;;;;;;;;;;;;5056529;28;20011;-74
2021/11/24 15:06:02;;;;;;;;;;;;;;;;;;5056602;28;19966;-74
2021/11/24 15:08:27;;;;;;;;;;;;;;;;;;5054940;28;19912;-73
2021/11/24 15:10:53;;;;;;;;;;;;;;;;;;5056742;28;20282;-74
2021/11/24 15:13:19;;;;;;;;;;;;;;;;;;5055358;28;19920;-74
2021/11/24 15:15:44;;;;;;;;;;;;;;;;;;5056676;28;19913;-74
2021/11/24 15:18:10;;;;;;;;;;;;;;;;;;5056515;28;19912;-74
2021/11/24 15:20:35;;;;;;;;;;;;;;;;;;5056328;28;19919;-74
2021/11/24 15:23:01;;;;;;;;;;;;;;;;;;5056557;28;19920;-74
2021/11/24 15:25:26;;;;;;;;;;;;;;;;;;5055467;28;19921;-74
2021/11/24 15:27:52;;;;;;;;;;;;;;;;;;5056215;28;19966;-74
2021/11/24 15:30:17;;;;;;;;;;;;;;;;;;5056318;28;19917;-74
2021/11/24 15:32:42;;;;;;;;;;;;;;;;;;5055252;28;19913;-74
2021/11/24 15:35:08;;;;;;;;;;;;;;;;;;5056002;28;20414;-73
2021/11/24 15:37:33;;;;;;;;;;;;;;;;;;5056224;28;19966;-74
2021/11/24 15:39:58;;;;;;;;;;;;;;;;;;5056192;28;19917;-74
2021/11/24 15:42:24;;;;;;;;;;;;;;;;;;5055984;28;20329;-74
2021/11/24 15:44:49;;;;;;;;;;;;;;;;;;5055760;28;19917;-74
2021/11/24 15:47:14;;;;;;;;;;;;;;;;;;5055824;28;19913;-74
2021/11/24 15:49:43;;;;;;;;;;;;;;;;;;5055952;28;19912;-74
2021/11/24 15:52:09;;;;;;;;;;;;;;;;;;5055984;28;20003;-74
2021/11/24 15:54:34;;;;;;;;;;;;;;;;;;5053721;28;19971;-74
2021/11/24 15:57:00;;;;;;;;;;;;;;;;;;5055186;28;19913;-74
2021/11/24 15:59:25;;;;;;;;;;;;;;;;;;5055631;28;19956;-74
2021/11/24 16:01:50;;;;;;;;;;;;;;;;;;5055691;28;19912;-74
2021/11/24 16:04:16;;;;;;;;;;;;;;;;;;5055310;28;19920;-74
2021/11/24 16:06:41;;;;;;;;;;;;;;;;;;5055685;28;20027;-74
2021/11/24 16:09:07;;;;;;;;;;;;;;;;;;5055005;28;20325;-73
2021/11/24 16:11:32;;;;;;;;;;;;;;;;;;5055334;28;19956;-74
2021/11/24 16:13:58;;;;;;;;;;;;;;;;;;5055357;28;19912;-73
2021/11/24 16:16:23;;;;;;;;;;;;;;;;;;5055442;28;19919;-74
2021/11/24 16:18:49;;;;;;;;;;;;;;;;;;5054389;28;19924;-74
2021/11/24 16:21:15;;;;;;;;;;;;;;;;;;5055351;28;20318;-74
2021/11/24 16:23:40;;;;;;;;;;;;;;;;;;5054751;28;19917;-74
2021/11/24 16:26:06;;;;;;;;;;;;;;;;;;5055341;28;19913;-74
2021/11/24 16:28:31;;;;;;;;;;;;;;;;;;5055223;28;20411;-74
2021/11/24 16:30:56;;;;;;;;;;;;;;;;;;5054565;28;20422;-74
2021/11/24 16:33:22;;;;;;;;;;;;;;;;;;5054826;28;19912;-73
2021/11/24 16:35:48;;;;;;;;;;;;;;;;;;5055032;28;20363;-74
2021/11/24 16:38:13;;;;;;;;;;;;;;;;;;5054962;28;19908;-73
2021/11/24 16:40:38;;;;;;;;;;;;;;;;;;5055245;28;20023;-75
2021/11/24 16:43:04;;;;;;;;;;;;;;;;;;5054899;28;19924;-75
2021/11/24 16:45:29;;;;;;;;;;;;;;;;;;5054459;28;19969;-75